Time;durP1;ratioP1;P1;durP2;ratioP2;P2;SDS_P1;SDS_P2;PMS_P1;PMS_P2;Temp;Humidity;BMP_temperature;BMP_pressure;BME280_temperature;BME280_humidity;BME280_pressure;Samples;Min_cycle;Max_cycle;Signal;HPM_P1;HPM_P2
2022/07/03 00:01:51;;;;;;;1.40;1.33;;;;;17.80;98499.00;;;;5116114;28;20615;-77
2022/07/03 00:04:20;;;;;;;1.17;1.17;;;;;17.70;98502.00;;;;5116327;28;20609;-77
2022/07/03 00:06:47;;;;;;;1.27;1.17;;;;;17.60;98499.00;;;;5115599;28;20193;-75
2022/07/03 00:09:14;;;;;;;0.60;0.60;;;;;17.60;98498.00;;;;5115638;28;20194;-77
2022/07/03 00:11:42;;;;;;;1.00;1.00;;;;;17.60;98499.00;;;;5115530;28;20645;-76
2022/07/03 00:14:09;;;;;;;0.67;0.67;;;;;17.50;98503.00;;;;5115448;28;20263;-77
2022/07/03 00:16:36;;;;;;;1.27;1.20;;;;;17.50;98500.00;;;;5115322;28;20262;-77
2022/07/03 00:19:02;;;;;;;0.77;0.77;;;;;17.50;98505.00;;;;5115623;28;20324;-76
2022/07/03 00:21:33;;;;;;;0.67;0.67;;;;;17.50;98502.00;;;;5115423;28;20228;-76
2022/07/03 00:24:04;;;;;;;0.60;0.60;;;;;17.50;98497.00;;;;5115496;28;20206;-76
2022/07/03 00:26:35;;;;;;;0.80;0.80;;;;;17.30;98500.00;;;;5115205;28;20224;-77
2022/07/03 00:29:03;;;;;;;0.87;0.87;;;;;17.30;98502.00;;;;5115304;28;20198;-77
2022/07/03 00:31:32;;;;;;;1.20;1.20;;;;;17.30;98502.00;;;;5115383;28;20221;-77
2022/07/03 00:34:00;;;;;;;0.67;0.67;;;;;17.40;98503.00;;;;5115139;28;20190;-76
2022/07/03 00:36:37;;;;;;;0.97;0.97;;;;;17.40;98496.00;;;;5096938;28;20656;-77
2022/07/03 00:39:05;;;;;;;0.50;0.50;;;;;17.50;98498.00;;;;5115045;28;20308;-77
2022/07/03 00:41:36;;;;;;;0.40;0.40;;;;;17.50;98498.00;;;;5114944;28;20672;-77
2022/07/03 00:44:05;;;;;;;0.90;0.90;;;;;17.50;98506.00;;;;5115158;28;20208;-77
2022/07/03 00:46:39;;;;;;;0.60;0.60;;;;;17.50;98505.00;;;;5115077;28;20237;-77
2022/07/03 00:49:09;;;;;;;0.63;0.63;;;;;17.50;98498.00;;;;5115109;28;20194;-76
2022/07/03 00:51:40;;;;;;;0.60;0.60;;;;;17.60;98490.00;;;;5114756;28;20237;-77
2022/07/03 00:54:09;;;;;;;7.07;1.10;;;;;17.70;98502.00;;;;5114857;28;20194;-76
2022/07/03 00:56:39;;;;;;;1.03;1.03;;;;;17.80;98499.00;;;;5114773;28;20231;-76
2022/07/03 00:59:06;;;;;;;2.20;1.57;;;;;17.80;98498.00;;;;5096834;28;20221;-76
2022/07/03 01:01:37;;;;;;;0.47;0.47;;;;;17.90;98497.00;;;;5096810;28;20222;-76
2022/07/03 01:04:14;;;;;;;0.53;0.53;;;;;17.70;98508.00;;;;5114772;28;20259;-76
2022/07/03 01:06:50;;;;;;;0.67;0.67;;;;;17.70;98506.00;;;;5114999;28;20224;-76
2022/07/03 01:09:26;;;;;;;0.63;0.63;;;;;17.70;98512.00;;;;5114707;28;20229;-76
2022/07/03 01:11:58;;;;;;;0.80;0.80;;;;;17.80;98502.00;;;;5114778;28;20218;-77
2022/07/03 01:14:32;;;;;;;0.70;0.70;;;;;18.00;98507.00;;;;5114706;28;20197;-77
2022/07/03 01:17:03;;;;;;;0.60;0.60;;;;;17.90;98494.00;;;;5114429;28;20224;-75
2022/07/03 01:19:41;;;;;;;1.00;1.00;;;;;18.00;98492.00;;;;5114516;28;20178;-76
2022/07/03 01:22:32;;;;;;;0.93;0.93;;;;;17.90;98493.00;;;;5114431;28;20326;-77
2022/07/03 01:25:24;;;;;;;0.50;0.50;;;;;17.70;98495.00;;;;5114529;28;20204;-76
2022/07/03 01:27:58;;;;;;;0.50;0.50;;;;;17.40;98490.00;;;;5114456;28;20242;-76
2022/07/03 01:30:27;;;;;;;0.73;0.73;;;;;17.50;98499.00;;;;5114600;28;20226;-77
2022/07/03 01:32:59;;;;;;;0.50;0.50;;;;;17.60;98492.00;;;;5114254;28;20205;-74
2022/07/03 01:35:31;;;;;;;0.60;0.60;;;;;17.60;98500.00;;;;5114447;28;20201;-77
2022/07/03 01:38:04;;;;;;;0.73;0.73;;;;;17.60;98486.00;;;;5114109;28;20291;-76
2022/07/03 01:40:34;;;;;;;0.50;0.50;;;;;17.60;98490.00;;;;5096692;28;20498;-77
2022/07/03 01:43:03;;;;;;;0.80;0.80;;;;;17.60;98494.00;;;;5096201;28;20213;-76
2022/07/03 01:45:33;;;;;;;0.53;0.53;;;;;17.60;98485.00;;;;5114225;28;20190;-77
2022/07/03 01:48:02;;;;;;;0.50;0.50;;;;;17.50;98492.00;;;;5114139;28;20232;-77
2022/07/03 01:50:30;;;;;;;0.90;0.90;;;;;17.60;98488.00;;;;5114050;28;20190;-77
2022/07/03 01:53:01;;;;;;;1.07;1.03;;;;;17.50;98489.00;;;;5113477;28;20621;-77
2022/07/03 01:55:31;;;;;;;0.73;0.73;;;;;17.40;98489.00;;;;5114002;28;20601;-75
2022/07/03 01:57:59;;;;;;;0.60;0.60;;;;;17.40;98489.00;;;;5114042;28;20224;-76
2022/07/03 02:00:28;;;;;;;0.60;0.60;;;;;17.40;98481.00;;;;5113840;28;20194;-77
2022/07/03 02:02:59;;;;;;;0.70;0.70;;;;;17.30;98481.00;;;;5113887;28;20274;-78
2022/07/03 02:05:38;;;;;;;3.97;1.27;;;;;17.30;98488.00;;;;5114184;28;20205;-77
2022/07/03 02:08:14;;;;;;;0.73;0.73;;;;;17.30;98483.00;;;;5113759;28;20221;-76
2022/07/03 02:10:47;;;;;;;0.77;0.77;;;;;17.30;98488.00;;;;5113757;28;20194;-76
2022/07/03 02:13:22;;;;;;;0.60;0.60;;;;;17.20;98477.00;;;;5113738;28;20523;-78
2022/07/03 02:15:51;;;;;;;0.80;0.80;;;;;17.20;98475.00;;;;5113721;28;20659;-77
2022/07/03 02:18:27;;;;;;;0.50;0.50;;;;;17.20;98478.00;;;;5113850;28;20218;-77
2022/07/03 02:21:03;;;;;;;1.33;1.23;;;;;17.20;98469.00;;;;5113826;28;20194;-77
2022/07/03 02:23:32;;;;;;;0.60;0.60;;;;;17.20;98464.00;;;;5113760;28;20251;-77
2022/07/03 02:26:03;;;;;;;0.60;0.60;;;;;17.30;98477.00;;;;5113589;28;20233;-76
2022/07/03 02:28:54;;;;;;;0.60;0.60;;;;;17.40;98472.00;;;;5113574;28;20201;-76
2022/07/03 02:31:26;;;;;;;0.60;0.60;;;;;17.20;98469.00;;;;5113596;28;20633;-78
2022/07/03 02:33:57;;;;;;;0.50;0.50;;;;;17.20;98477.00;;;;5113561;28;20213;-77
2022/07/03 02:36:28;;;;;;;0.70;0.70;;;;;17.20;98484.00;;;;5113462;28;20197;-75
2022/07/03 02:38:57;;;;;;;0.60;0.60;;;;;17.20;98469.00;;;;5113559;28;20218;-77
2022/07/03 02:41:29;;;;;;;0.60;0.60;;;;;17.10;98476.00;;;;5113593;28;20194;-77
2022/07/03 02:44:01;;;;;;;1.23;1.23;;;;;17.20;98481.00;;;;5113592;28;20271;-77
2022/07/03 02:46:49;;;;;;;0.80;0.80;;;;;17.20;98475.00;;;;5113423;28;20190;-77
2022/07/03 02:49:38;;;;;;;0.73;0.73;;;;;17.10;98477.00;;;;5113430;28;20195;-77
2022/07/03 02:52:30;;;;;;;0.60;0.60;;;;;17.10;98475.00;;;;5113395;28;20501;-77
2022/07/03 02:55:03;;;;;;;0.63;0.63;;;;;17.20;98473.00;;;;5113459;28;20253;-77
2022/07/03 02:57:36;;;;;;;0.80;0.80;;;;;17.20;98479.00;;;;5113288;28;20249;-77
2022/07/03 03:00:06;;;;;;;0.60;0.60;;;;;17.20;98477.00;;;;5113373;28;20216;-77
2022/07/03 03:02:54;;;;;;;0.50;0.50;;;;;17.10;98478.00;;;;5113176;28;20225;-78
2022/07/03 03:05:30;;;;;;;0.70;0.70;;;;;17.10;98483.00;;;;5115850;28;20822;-78
2022/07/03 03:08:08;;;;;;;1.33;1.00;;;;;17.00;98491.00;;;;5116643;28;20296;-77
2022/07/03 03:10:37;;;;;;;0.77;0.77;;;;;17.00;98489.00;;;;5116624;28;20272;-77
2022/07/03 03:13:06;;;;;;;0.50;0.50;;;;;16.90;98491.00;;;;5116564;28;20218;-77
2022/07/03 03:15:34;;;;;;;0.80;0.80;;;;;16.80;98490.00;;;;5116677;28;20194;-78
2022/07/03 03:18:04;;;;;;;0.50;0.50;;;;;16.90;98500.00;;;;5116407;28;20567;-78
2022/07/03 03:20:33;;;;;;;0.80;0.80;;;;;16.80;98490.00;;;;5116533;28;20284;-78
2022/07/03 03:23:24;;;;;;;0.70;0.70;;;;;16.70;98492.00;;;;5116469;28;20217;-77
2022/07/03 03:25:53;;;;;;;0.97;0.97;;;;;16.70;98491.00;;;;5112917;28;20229;-78
2022/07/03 03:28:21;;;;;;;0.60;0.60;;;;;16.70;98493.00;;;;5116259;28;20226;-78
2022/07/03 03:30:50;;;;;;;1.07;1.07;;;;;16.60;98498.00;;;;5116152;28;20251;-78
2022/07/03 03:33:19;;;;;;;0.70;0.70;;;;;16.60;98498.00;;;;5116101;28;20221;-78
2022/07/03 03:35:45;;;;;;;0.87;0.87;;;;;16.60;98499.00;;;;5116217;28;20201;-77
2022/07/03 03:38:13;;;;;;;0.70;0.70;;;;;16.60;98502.00;;;;5115971;28;20233;-78
2022/07/03 03:40:40;;;;;;;0.50;0.50;;;;;16.60;98506.00;;;;5116122;28;20194;-78
2022/07/03 03:43:07;;;;;;;0.80;0.80;;;;;16.70;98502.00;;;;5115955;28;20230;-77
2022/07/03 03:45:33;;;;;;;0.77;0.77;;;;;16.70;98506.00;;;;5115999;28;20196;-77
2022/07/03 03:48:01;;;;;;;0.70;0.70;;;;;16.60;98514.00;;;;5115920;28;20213;-75
2022/07/03 03:50:28;;;;;;;0.70;0.70;;;;;16.60;98510.00;;;;5116250;28;20268;-77
2022/07/03 03:53:00;;;;;;;0.50;0.50;;;;;16.60;98505.00;;;;5115864;28;20359;-78
2022/07/03 03:55:28;;;;;;;0.97;0.97;;;;;16.70;98511.00;;;;5116163;28;20206;-78
2022/07/03 03:57:54;;;;;;;0.90;0.90;;;;;16.60;98517.00;;;;5115856;28;20210;-78
2022/07/03 04:00:21;;;;;;;0.50;0.50;;;;;16.60;98519.00;;;;5115806;28;20198;-78
2022/07/03 04:02:48;;;;;;;0.67;0.67;;;;;16.60;98517.00;;;;5115711;28;20524;-78
2022/07/03 04:05:17;;;;;;;0.87;0.87;;;;;16.60;98516.00;;;;5115843;28;20205;-77
2022/07/03 04:07:45;;;;;;;0.63;0.63;;;;;16.60;98509.00;;;;5115728;28;20196;-77
2022/07/03 04:10:12;;;;;;;0.80;0.80;;;;;16.60;98516.00;;;;5115644;28;20202;-77
2022/07/03 04:12:38;;;;;;;0.90;0.90;;;;;16.70;98514.00;;;;5115596;28;20190;-77
2022/07/03 04:15:06;;;;;;;0.77;0.77;;;;;16.60;98513.00;;;;5097387;28;20205;-77
2022/07/03 04:17:35;;;;;;;1.23;1.03;;;;;16.60;98511.00;;;;5115402;28;20699;-77
2022/07/03 04:20:05;;;;;;;0.70;0.70;;;;;16.70;98520.00;;;;5115813;28;20497;-78
2022/07/03 04:22:32;;;;;;;0.40;0.40;;;;;16.80;98523.00;;;;5115434;28;20201;-76
2022/07/03 04:25:00;;;;;;;0.90;0.90;;;;;16.70;98519.00;;;;5115508;28;20190;-78
2022/07/03 04:27:27;;;;;;;1.50;1.07;;;;;16.80;98519.00;;;;5115440;28;20209;-76
2022/07/03 04:29:53;;;;;;;0.87;0.70;;;;;16.90;98513.00;;;;5115328;28;20269;-75
2022/07/03 04:32:20;;;;;;;0.40;0.40;;;;;16.80;98516.00;;;;5115394;28;20201;-79
2022/07/03 04:34:47;;;;;;;0.70;0.70;;;;;16.90;98523.00;;;;5115617;28;20221;-78
2022/07/03 04:37:14;;;;;;;1.07;1.07;;;;;16.90;98531.00;;;;5115135;28;20669;-79
2022/07/03 04:39:40;;;;;;;0.60;0.60;;;;;16.90;98538.00;;;;5115088;28;20234;-77
2022/07/03 04:42:10;;;;;;;0.80;0.80;;;;;17.00;98540.00;;;;5115178;28;20190;-77
2022/07/03 04:44:37;;;;;;;0.90;0.90;;;;;17.10;98538.00;;;;5115360;28;20234;-77
2022/07/03 04:47:04;;;;;;;0.60;0.60;;;;;17.20;98547.00;;;;5097201;28;20202;-77
2022/07/03 04:49:31;;;;;;;0.70;0.70;;;;;17.30;98542.00;;;;5114997;28;20224;-77
2022/07/03 04:51:57;;;;;;;0.70;0.70;;;;;17.40;98540.00;;;;5115112;28;20246;-76
2022/07/03 04:54:24;;;;;;;0.50;0.50;;;;;17.50;98546.00;;;;5114904;28;20225;-77
2022/07/03 04:56:51;;;;;;;0.70;0.70;;;;;17.60;98545.00;;;;5114969;28;20197;-77
2022/07/03 04:59:18;;;;;;;0.50;0.50;;;;;17.70;98543.00;;;;5114758;28;20225;-77
2022/07/03 05:01:47;;;;;;;0.60;0.60;;;;;17.80;98550.00;;;;5114832;28;20201;-77
2022/07/03 05:04:16;;;;;;;0.43;0.43;;;;;17.80;98542.00;;;;5114737;28;20577;-77
2022/07/03 05:06:43;;;;;;;1.27;1.17;;;;;17.80;98542.00;;;;5114822;28;20175;-76
2022/07/03 05:09:10;;;;;;;0.90;0.90;;;;;17.90;98544.00;;;;5114561;28;20518;-75
2022/07/03 05:11:37;;;;;;;0.50;0.50;;;;;17.90;98550.00;;;;5114700;28;20292;-77
2022/07/03 05:14:07;;;;;;;0.60;0.60;;;;;18.00;98545.00;;;;5114583;28;20217;-77
2022/07/03 05:16:34;;;;;;;0.50;0.50;;;;;18.00;98545.00;;;;5114611;28;20208;-77
2022/07/03 05:19:01;;;;;;;0.97;0.73;;;;;18.10;98547.00;;;;5114482;28;20554;-79
2022/07/03 05:21:28;;;;;;;0.60;0.60;;;;;18.20;98545.00;;;;5114489;28;20285;-77
2022/07/03 05:23:55;;;;;;;0.63;0.63;;;;;18.20;98544.00;;;;5114356;28;20186;-77
2022/07/03 05:26:22;;;;;;;0.40;0.40;;;;;18.30;98545.00;;;;5113944;28;20194;-77
2022/07/03 05:28:49;;;;;;;0.60;0.60;;;;;18.40;98546.00;;;;5114118;28;20202;-77
2022/07/03 05:31:16;;;;;;;0.63;0.63;;;;;18.40;98545.00;;;;5114330;28;20201;-77
2022/07/03 05:33:44;;;;;;;0.60;0.60;;;;;18.40;98543.00;;;;5114265;28;20687;-77
2022/07/03 05:36:10;;;;;;;0.60;0.60;;;;;18.50;98545.00;;;;5114229;28;20229;-77
2022/07/03 05:41:24;;;;;;;0.60;0.60;;;;;18.60;98548.00;;;;5114301;28;20194;-77
2022/07/03 05:43:51;;;;;;;0.50;0.50;;;;;18.70;98547.00;;;;5114159;28;20660;-77
2022/07/03 05:46:20;;;;;;;0.80;0.80;;;;;18.90;98550.00;;;;5114315;28;20198;-78
2022/07/03 05:48:50;;;;;;;0.50;0.50;;;;;19.00;98557.00;;;;5114112;28;20197;-77
2022/07/03 05:51:17;;;;;;;0.47;0.47;;;;;19.10;98550.00;;;;5114001;28;20636;-77
2022/07/03 05:53:44;;;;;;;0.70;0.70;;;;;19.10;98549.00;;;;5113984;28;20266;-78
2022/07/03 05:56:11;;;;;;;0.50;0.50;;;;;19.20;98549.00;;;;5114012;28;20185;-77
2022/07/03 05:58:41;;;;;;;0.40;0.40;;;;;19.30;98547.00;;;;5113725;28;20225;-74
2022/07/03 06:01:08;;;;;;;0.73;0.73;;;;;19.40;98548.00;;;;5113973;28;20295;-77
2022/07/03 06:03:34;;;;;;;0.40;0.40;;;;;19.40;98543.00;;;;5113956;28;20212;-76
2022/07/03 06:06:02;;;;;;;0.70;0.70;;;;;19.50;98549.00;;;;5113834;28;20217;-76
2022/07/03 06:08:29;;;;;;;0.40;0.40;;;;;19.60;98555.00;;;;5114226;28;20571;-77
2022/07/03 06:10:55;;;;;;;0.77;0.77;;;;;19.70;98542.00;;;;5113840;28;20225;-76
2022/07/03 06:13:25;;;;;;;0.40;0.40;;;;;19.90;98540.00;;;;5114006;28;20212;-77
2022/07/03 06:15:52;;;;;;;0.60;0.60;;;;;20.00;98542.00;;;;5113869;28;20661;-77
2022/07/03 06:18:21;;;;;;;0.50;0.50;;;;;20.10;98543.00;;;;5113757;28;20213;-77
2022/07/03 06:20:48;;;;;;;0.30;0.30;;;;;20.10;98543.00;;;;5113619;28;20226;-77
2022/07/03 06:23:15;;;;;;;0.70;0.70;;;;;20.20;98544.00;;;;5113721;28;20190;-77
2022/07/03 06:25:42;;;;;;;3.00;1.13;;;;;20.30;98545.00;;;;5113647;28;20214;-77
2022/07/03 06:28:09;;;;;;;0.50;0.50;;;;;20.40;98544.00;;;;5113839;28;20634;-77
2022/07/03 06:30:35;;;;;;;0.60;0.60;;;;;20.60;98538.00;;;;5113665;28;20218;-77
2022/07/03 06:33:02;;;;;;;0.57;0.57;;;;;20.60;98535.00;;;;5113737;28;20198;-74
2022/07/03 06:35:31;;;;;;;0.67;0.67;;;;;20.70;98545.00;;;;5113364;28;20218;-77
2022/07/03 06:38:02;;;;;;;0.60;0.60;;;;;20.90;98544.00;;;;5114083;28;20221;-77
2022/07/03 06:40:29;;;;;;;0.50;0.50;;;;;20.90;98550.00;;;;5116900;28;20224;-77
2022/07/03 06:42:57;;;;;;;0.70;0.70;;;;;20.90;98545.00;;;;5116953;28;20251;-77
2022/07/03 06:45:23;;;;;;;0.40;0.40;;;;;21.00;98544.00;;;;5099178;28;20226;-77
2022/07/03 06:47:50;;;;;;;0.65;0.65;;;;;21.10;98551.00;;;;5116738;28;20201;-77
2022/07/03 06:50:17;;;;;;;0.57;0.57;;;;;21.30;98538.00;;;;5116970;28;20230;-77
2022/07/03 06:52:44;;;;;;;0.50;0.50;;;;;21.40;98542.00;;;;5117117;28;20189;-77
2022/07/03 06:55:11;;;;;;;0.55;0.55;;;;;21.50;98548.00;;;;5116771;28;20206;-77
2022/07/03 06:57:41;;;;;;;0.55;0.55;;;;;21.70;98544.00;;;;5116678;28;20202;-77
2022/07/03 07:00:09;;;;;;;0.40;0.40;;;;;21.80;98555.00;;;;5098767;28;20529;-77
2022/07/03 07:02:38;;;;;;;0.40;0.40;;;;;21.90;98556.00;;;;5116675;28;20677;-77
2022/07/03 07:05:06;;;;;;;0.50;0.50;;;;;22.00;98564.00;;;;5116662;28;20220;-77
2022/07/03 07:07:32;;;;;;;0.50;0.50;;;;;22.10;98554.00;;;;5116535;28;20206;-77
2022/07/03 07:09:59;;;;;;;0.47;0.47;;;;;22.10;98557.00;;;;5116525;28;20572;-77
2022/07/03 07:12:26;;;;;;;0.47;0.47;;;;;22.10;98564.00;;;;5116786;28;20502;-77
2022/07/03 07:14:54;;;;;;;1.40;1.05;;;;;22.10;98566.00;;;;5116455;28;20199;-77
2022/07/03 07:17:20;;;;;;;0.52;0.52;;;;;22.30;98562.00;;;;5098823;28;20593;-77
2022/07/03 07:19:47;;;;;;;0.50;0.50;;;;;22.30;98557.00;;;;5116397;28;20278;-77
2022/07/03 07:22:14;;;;;;;0.90;0.90;;;;;22.30;98563.00;;;;5116381;28;20186;-77
2022/07/03 07:24:41;;;;;;;0.80;0.80;;;;;22.50;98563.00;;;;5116558;28;20229;-77
2022/07/03 07:27:08;;;;;;;0.50;0.50;;;;;22.60;98564.00;;;;5116318;28;20228;-76
2022/07/03 07:29:35;;;;;;;0.40;0.40;;;;;22.60;98568.00;;;;5116563;28;20249;-78
2022/07/03 07:32:02;;;;;;;0.50;0.50;;;;;22.80;98569.00;;;;5116265;28;20606;-77
2022/07/03 07:34:29;;;;;;;0.40;0.40;;;;;22.90;98564.00;;;;5116268;28;20640;-76
2022/07/03 07:36:56;;;;;;;0.60;0.60;;;;;23.00;98568.00;;;;5116264;28;20226;-77
2022/07/03 07:39:23;;;;;;;0.60;0.60;;;;;23.30;98565.00;;;;5116058;28;20233;-77
2022/07/03 07:41:52;;;;;;;0.50;0.50;;;;;23.40;98569.00;;;;5116147;28;20221;-77
2022/07/03 07:44:19;;;;;;;0.40;0.40;;;;;23.40;98572.00;;;;5116251;28;20201;-78
2022/07/03 07:46:46;;;;;;;0.40;0.40;;;;;23.40;98569.00;;;;5115986;28;20219;-77
2022/07/03 07:49:13;;;;;;;0.47;0.47;;;;;23.50;98564.00;;;;5115869;28;20194;-77
2022/07/03 07:51:40;;;;;;;0.40;0.40;;;;;23.70;98574.00;;;;5097280;28;20553;-77
2022/07/03 07:54:07;;;;;;;0.55;0.55;;;;;23.60;98570.00;;;;5115980;28;20189;-77
2022/07/03 07:56:34;;;;;;;0.57;0.57;;;;;23.70;98566.00;;;;5115904;28;20221;-76
2022/07/03 07:59:00;;;;;;;0.68;0.68;;;;;23.70;98566.00;;;;5115762;28;20542;-74
2022/07/03 08:07:00;;;;;;;0.40;0.40;;;;;24.00;98554.00;;;;5115446;28;20228;-77
2022/07/03 08:09:27;;;;;;;0.50;0.50;;;;;24.00;98558.00;;;;5115805;28;20205;-77
2022/07/03 08:11:54;;;;;;;0.40;0.40;;;;;24.00;98556.00;;;;5115490;28;20228;-77
2022/07/03 08:14:21;;;;;;;0.98;0.98;;;;;24.10;98560.00;;;;5115589;28;20629;-77
2022/07/03 08:16:47;;;;;;;0.50;0.50;;;;;24.10;98559.00;;;;5116256;28;20226;-76
2022/07/03 08:19:15;;;;;;;0.70;0.70;;;;;24.10;98556.00;;;;5116108;28;20218;-74
2022/07/03 08:21:42;;;;;;;0.40;0.40;;;;;24.40;98552.00;;;;5116081;28;20227;-77
2022/07/03 08:24:10;;;;;;;0.50;0.50;;;;;24.40;98557.00;;;;5116033;28;20213;-76
2022/07/03 08:26:37;;;;;;;0.50;0.50;;;;;24.50;98553.00;;;;5115958;28;20225;-76
2022/07/03 08:29:06;;;;;;;0.40;0.40;;;;;24.50;98553.00;;;;5116005;28;20202;-77
2022/07/03 08:31:33;;;;;;;0.75;0.75;;;;;24.60;98553.00;;;;5115814;28;20198;-75
2022/07/03 08:34:00;;;;;;;0.82;0.82;;;;;24.60;98553.00;;;;5115909;28;20258;-76
2022/07/03 08:36:28;;;;;;;0.60;0.60;;;;;24.70;98555.00;;;;5116223;28;20194;-76
2022/07/03 08:38:56;;;;;;;0.40;0.40;;;;;24.80;98556.00;;;;5097940;28;20553;-77
2022/07/03 08:41:24;;;;;;;0.50;0.50;;;;;24.70;98555.00;;;;5115460;28;20603;-77
2022/07/03 08:43:52;;;;;;;0.50;0.50;;;;;24.70;98548.00;;;;5115617;28;20197;-77
2022/07/03 08:46:19;;;;;;;0.57;0.57;;;;;24.70;98541.00;;;;5115537;28;20192;-77
2022/07/03 08:48:47;;;;;;;0.50;0.50;;;;;24.80;98544.00;;;;5115894;28;20300;-77
2022/07/03 08:51:15;;;;;;;0.55;0.55;;;;;24.90;98545.00;;;;5097917;28;20205;-79
2022/07/03 08:53:47;;;;;;;0.70;0.70;;;;;25.00;98541.00;;;;5115480;28;20205;-79
2022/07/03 08:56:14;;;;;;;0.60;0.60;;;;;25.10;98542.00;;;;5115380;28;20251;-77
2022/07/03 08:58:42;;;;;;;0.60;0.60;;;;;24.90;98552.00;;;;5115279;28;20580;-78
2022/07/03 09:01:09;;;;;;;0.40;0.40;;;;;25.10;98547.00;;;;5115212;28;20281;-78
2022/07/03 09:03:37;;;;;;;0.50;0.50;;;;;25.10;98555.00;;;;5114790;28;20594;-78
2022/07/03 09:06:05;;;;;;;0.77;0.77;;;;;25.10;98553.00;;;;5115153;28;20194;-78
2022/07/03 09:08:36;;;;;;;0.47;0.47;;;;;25.00;98549.00;;;;5115205;28;20217;-78
2022/07/03 09:11:04;;;;;;;0.63;0.63;;;;;25.00;98555.00;;;;5115295;28;20200;-78
2022/07/03 09:13:31;;;;;;;0.60;0.60;;;;;25.10;98546.00;;;;5114847;28;20218;-77
2022/07/03 09:15:58;;;;;;;0.60;0.60;;;;;25.30;98553.00;;;;5115097;28;20216;-77
2022/07/03 09:18:38;;;;;;;0.45;0.45;;;;;25.50;98557.00;;;;5115024;28;20364;-78
2022/07/03 09:21:05;;;;;;;0.98;0.98;;;;;25.40;98546.00;;;;5115063;28;20182;-78
2022/07/03 09:23:37;;;;;;;0.50;0.50;;;;;25.50;98551.00;;;;5097062;28;20549;-79
2022/07/03 09:26:06;;;;;;;0.52;0.52;;;;;25.50;98542.00;;;;5115133;28;20236;-79
2022/07/03 09:28:44;;;;;;;0.60;0.60;;;;;25.70;98545.00;;;;5118935;28;20232;-77
2022/07/03 09:31:11;;;;;;;0.50;0.50;;;;;25.70;98551.00;;;;5126134;28;20232;-78
2022/07/03 09:33:53;;;;;;;0.50;0.50;;;;;25.70;98555.00;;;;5118869;28;20228;-80
2022/07/03 09:36:22;;;;;;;0.50;0.50;;;;;25.80;98553.00;;;;5114919;28;20262;-79
2022/07/03 09:38:49;;;;;;;0.70;0.70;;;;;25.90;98547.00;;;;5114899;28;20758;-78
2022/07/03 09:41:16;;;;;;;0.90;0.90;;;;;26.00;98548.00;;;;5114750;28;20201;-79
2022/07/03 09:43:44;;;;;;;0.50;0.50;;;;;26.00;98545.00;;;;5114603;28;20210;-78
2022/07/03 09:46:11;;;;;;;0.60;0.60;;;;;26.00;98540.00;;;;5114649;28;20209;-78
2022/07/03 09:48:39;;;;;;;0.50;0.50;;;;;26.00;98542.00;;;;5114839;28;20224;-78
2022/07/03 09:51:19;;;;;;;0.85;0.85;;;;;26.20;98539.00;;;;5114784;28;20206;-79
2022/07/03 09:53:48;;;;;;;0.57;0.57;;;;;26.30;98530.00;;;;5114457;28;20274;-78
2022/07/03 09:56:16;;;;;;;0.80;0.80;;;;;26.40;98531.00;;;;5114697;28;20194;-78
2022/07/03 09:59:00;;;;;;;0.70;0.70;;;;;26.70;98526.00;;;;5114349;28;20547;-77
2022/07/03 10:01:27;;;;;;;0.70;0.70;;;;;26.60;98524.00;;;;5114176;28;20216;-78
2022/07/03 10:04:07;;;;;;;0.60;0.60;;;;;26.70;98526.00;;;;5115487;28;20210;-78
2022/07/03 10:06:46;;;;;;;0.50;0.50;;;;;26.70;98539.00;;;;5114283;28;20221;-76
2022/07/03 10:09:16;;;;;;;0.50;0.50;;;;;26.50;98534.00;;;;5113841;28;20237;-79
2022/07/03 10:11:46;;;;;;;0.57;0.57;;;;;26.50;98537.00;;;;5113946;28;20190;-79
2022/07/03 10:14:15;;;;;;;0.50;0.50;;;;;26.70;98530.00;;;;5116239;28;20550;-78
2022/07/03 10:16:42;;;;;;;0.45;0.45;;;;;26.70;98528.00;;;;5117449;28;20244;-78
2022/07/03 10:19:14;;;;;;;0.60;0.60;;;;;27.00;98523.00;;;;5117345;28;20264;-77
2022/07/03 10:21:47;;;;;;;0.70;0.70;;;;;26.80;98535.00;;;;5117341;28;20190;-77
2022/07/03 10:24:14;;;;;;;0.50;0.50;;;;;27.00;98524.00;;;;5117607;28;20218;-78
2022/07/03 10:26:41;;;;;;;0.60;0.60;;;;;26.90;98523.00;;;;5099447;28;20198;-77
2022/07/03 10:29:10;;;;;;;0.70;0.70;;;;;27.10;98527.00;;;;5117406;28;20221;-78
2022/07/03 10:31:39;;;;;;;0.60;0.60;;;;;27.00;98536.00;;;;5117308;28;20204;-78
2022/07/03 10:34:10;;;;;;;0.60;0.60;;;;;26.80;98537.00;;;;5117267;28;20241;-78
2022/07/03 10:36:38;;;;;;;1.13;0.90;;;;;26.90;98549.00;;;;5099564;28;20202;-77
2022/07/03 10:39:07;;;;;;;0.60;0.60;;;;;26.90;98530.00;;;;5117000;28;20237;-77
2022/07/03 10:47:43;;;;;;;0.60;0.60;;;;;27.20;98529.00;;;;5117211;28;20189;-78
2022/07/03 10:50:12;;;;;;;0.65;0.65;;;;;27.30;98531.00;;;;5117208;28;20226;-78
2022/07/03 10:52:40;;;;;;;0.63;0.63;;;;;27.50;98535.00;;;;5117111;28;20202;-78
2022/07/03 10:55:07;;;;;;;0.60;0.60;;;;;27.60;98523.00;;;;5116950;28;20194;-76
2022/07/03 10:57:34;;;;;;;0.50;0.50;;;;;27.80;98531.00;;;;5116852;28;20186;-79
2022/07/03 11:00:08;;;;;;;4.03;0.95;;;;;27.60;98525.00;;;;5098597;28;20610;-78
2022/07/03 11:02:38;;;;;;;0.50;0.50;;;;;27.70;98527.00;;;;5116869;28;20655;-78
2022/07/03 11:05:23;;;;;;;0.50;0.50;;;;;27.80;98526.00;;;;5120552;28;20286;-78
2022/07/03 11:08:12;;;;;;;0.55;0.55;;;;;27.90;98525.00;;;;5121920;28;20205;-75
2022/07/03 11:10:43;;;;;;;0.65;0.65;;;;;27.90;98523.00;;;;5098782;28;20214;-78
2022/07/03 11:13:15;;;;;;;0.60;0.60;;;;;28.00;98522.00;;;;5116599;28;20286;-78
2022/07/03 11:15:45;;;;;;;0.63;0.63;;;;;28.30;98514.00;;;;5116855;28;20190;-77
2022/07/03 11:18:26;;;;;;;0.65;0.65;;;;;28.60;98506.00;;;;5099396;28;20198;-78
2022/07/03 11:21:29;;;;;;;0.75;0.75;;;;;28.80;98508.00;;;;5117379;28;20186;-78
2022/07/03 11:24:22;;;;;;;0.55;0.55;;;;;29.00;98505.00;;;;5117221;28;20208;-78
2022/07/03 11:27:23;;;;;;;0.70;0.70;;;;;29.00;98508.00;;;;5117006;28;20214;-77
2022/07/03 11:29:53;;;;;;;0.52;0.52;;;;;29.10;98501.00;;;;5116839;28;20221;-78
2022/07/03 11:32:52;;;;;;;0.60;0.60;;;;;29.10;98506.00;;;;5116946;28;20190;-78
2022/07/03 11:35:48;;;;;;;0.65;0.65;;;;;29.40;98499.00;;;;5116619;28;20668;-78
2022/07/03 11:38:16;;;;;;;0.50;0.50;;;;;29.70;98498.00;;;;5117086;28;20637;-76
2022/07/03 11:40:48;;;;;;;0.77;0.77;;;;;29.70;98495.00;;;;5116934;28;20257;-78
2022/07/03 11:43:15;;;;;;;0.63;0.63;;;;;29.50;98498.00;;;;5116882;28;20198;-78
2022/07/03 11:45:45;;;;;;;0.80;0.80;;;;;29.60;98490.00;;;;5116679;28;20214;-79
2022/07/03 11:48:16;;;;;;;0.70;0.70;;;;;29.90;98496.00;;;;5116759;28;20185;-76
2022/07/03 11:50:46;;;;;;;0.55;0.55;;;;;30.10;98491.00;;;;5116845;28;20584;-78
2022/07/03 11:53:22;;;;;;;0.50;0.50;;;;;30.00;98493.00;;;;5116740;28;20645;-78
2022/07/03 11:55:53;;;;;;;0.93;0.93;;;;;30.00;98490.00;;;;5116570;28;20214;-78
2022/07/03 11:58:23;;;;;;;0.60;0.60;;;;;30.00;98484.00;;;;5116618;28;20221;-79
2022/07/03 12:00:51;;;;;;;0.55;0.55;;;;;30.20;98481.00;;;;5116215;28;20235;-78
2022/07/03 12:03:26;;;;;;;0.60;0.60;;;;;29.90;98478.00;;;;5116166;28;20202;-78
2022/07/03 12:05:58;;;;;;;0.60;0.60;;;;;30.30;98479.00;;;;5116371;28;20205;-77
2022/07/03 12:08:28;;;;;;;0.68;0.68;;;;;30.20;98478.00;;;;5116389;28;20540;-78
2022/07/03 12:11:02;;;;;;;0.70;0.70;;;;;30.50;98481.00;;;;5116552;28;20198;-78
2022/07/03 12:13:30;;;;;;;0.60;0.60;;;;;30.50;98472.00;;;;5116564;28;20238;-79
2022/07/03 12:16:09;;;;;;;0.70;0.70;;;;;30.60;98474.00;;;;5116308;28;20249;-78
2022/07/03 12:18:47;;;;;;;0.60;0.60;;;;;30.80;98475.00;;;;5119911;28;20221;-78
2022/07/03 12:21:14;;;;;;;0.50;0.50;;;;;30.90;98478.00;;;;5121351;28;20272;-78
2022/07/03 12:23:48;;;;;;;0.60;0.60;;;;;30.50;98476.00;;;;5121697;28;20236;-78
2022/07/03 12:26:28;;;;;;;0.90;0.90;;;;;30.40;98477.00;;;;5121322;28;20527;-78
2022/07/03 12:28:55;;;;;;;0.60;0.60;;;;;30.30;98469.00;;;;5122033;28;20201;-79
2022/07/03 12:31:22;;;;;;;0.70;0.70;;;;;30.00;98465.00;;;;5122311;28;20224;-77
2022/07/03 12:33:49;;;;;;;0.68;0.68;;;;;30.60;98463.00;;;;5122433;28;20208;-79
2022/07/03 12:36:17;;;;;;;0.68;0.68;;;;;30.70;98461.00;;;;5121612;28;20210;-78
2022/07/03 12:38:47;;;;;;;0.65;0.65;;;;;30.80;98454.00;;;;5121951;28;20224;-79
2022/07/03 12:41:16;;;;;;;0.60;0.60;;;;;31.30;98453.00;;;;5103375;28;20221;-78
2022/07/03 12:43:47;;;;;;;0.45;0.45;;;;;31.60;98452.00;;;;5121878;28;20225;-79
2022/07/03 12:46:20;;;;;;;0.50;0.50;;;;;31.90;98456.00;;;;5121689;28;20232;-78
2022/07/03 12:48:52;;;;;;;0.57;0.57;;;;;31.80;98452.00;;;;5103546;28;20570;-78